sensor_id;sensor_type;location;lat;lon;timestamp;P1;durP1;ratioP1;P2;durP2;ratioP2
25637;SDS011;13496;51.040;13.680;2022-10-24T00:02:30;5.28;;;4.25;;
25637;SDS011;13496;51.040;13.680;2022-10-24T00:07:32;4.97;;;4.45;;
25637;SDS011;13496;51.040;13.680;2022-10-24T00:12:33;4.65;;;4.25;;
25637;SDS011;13496;51.040;13.680;2022-10-24T00:17:35;4.50;;;4.07;;
25637;SDS011;13496;51.040;13.680;2022-10-24T00:22:37;5.13;;;4.55;;
25637;SDS011;13496;51.040;13.680;2022-10-24T00:27:39;4.85;;;4.43;;
25637;SDS011;13496;51.040;13.680;2022-10-24T00:32:41;4.70;;;4.30;;
25637;SDS011;13496;51.040;13.680;2022-10-24T00:37:42;4.35;;;3.95;;
25637;SDS011;13496;51.040;13.680;2022-10-24T00:42:44;4.47;;;4.07;;
25637;SDS011;13496;51.040;13.680;2022-10-24T00:47:47;4.60;;;4.20;;
25637;SDS011;13496;51.040;13.680;2022-10-24T00:52:48;4.47;;;4.07;;
25637;SDS011;13496;51.040;13.680;2022-10-24T00:57:51;4.50;;;4.07;;
25637;SDS011;13496;51.040;13.680;2022-10-24T01:02:57;4.43;;;4.03;;
25637;SDS011;13496;51.040;13.680;2022-10-24T01:40:27;4.38;;;3.92;;
25637;SDS011;13496;51.040;13.680;2022-10-24T01:45:37;4.28;;;3.97;;
25637;SDS011;13496;51.040;13.680;2022-10-24T01:50:42;4.15;;;3.85;;
25637;SDS011;13496;51.040;13.680;2022-10-24T01:55:46;4.05;;;3.72;;
25637;SDS011;13496;51.040;13.680;2022-10-24T02:00:50;4.25;;;3.72;;
25637;SDS011;13496;51.040;13.680;2022-10-24T02:05:57;4.40;;;4.00;;
25637;SDS011;13496;51.040;13.680;2022-10-24T02:11:03;3.97;;;3.60;;
25637;SDS011;13496;51.040;13.680;2022-10-24T02:16:07;4.30;;;4.00;;
25637;SDS011;13496;51.040;13.680;2022-10-24T02:26:53;3.97;;;3.63;;
25637;SDS011;13496;51.040;13.680;2022-10-24T02:31:58;4.38;;;3.97;;
25637;SDS011;13496;51.040;13.680;2022-10-24T02:37:01;3.65;;;3.30;;
25637;SDS011;13496;51.040;13.680;2022-10-24T02:42:06;4.25;;;3.90;;
25637;SDS011;13496;51.040;13.680;2022-10-24T02:47:10;4.25;;;3.85;;
25637;SDS011;13496;51.040;13.680;2022-10-24T02:52:14;4.00;;;3.70;;
25637;SDS011;13496;51.040;13.680;2022-10-24T02:57:16;3.90;;;3.60;;
25637;SDS011;13496;51.040;13.680;2022-10-24T03:02:18;3.95;;;3.58;;
25637;SDS011;13496;51.040;13.680;2022-10-24T03:07:20;4.13;;;3.83;;
25637;SDS011;13496;51.040;13.680;2022-10-24T03:12:22;4.30;;;4.00;;
25637;SDS011;13496;51.040;13.680;2022-10-24T03:17:24;3.92;;;3.60;;
25637;SDS011;13496;51.040;13.680;2022-10-24T03:22:26;4.05;;;3.75;;
25637;SDS011;13496;51.040;13.680;2022-10-24T03:27:28;3.80;;;3.50;;
25637;SDS011;13496;51.040;13.680;2022-10-24T03:32:30;3.63;;;3.33;;
25637;SDS011;13496;51.040;13.680;2022-10-24T03:37:34;3.95;;;3.65;;
25637;SDS011;13496;51.040;13.680;2022-10-24T03:42:36;3.80;;;3.50;;
25637;SDS011;13496;51.040;13.680;2022-10-24T03:47:37;4.10;;;3.80;;
25637;SDS011;13496;51.040;13.680;2022-10-24T03:52:39;3.78;;;3.47;;
25637;SDS011;13496;51.040;13.680;2022-10-24T03:57:41;4.13;;;3.75;;
25637;SDS011;13496;51.040;13.680;2022-10-24T04:02:42;4.53;;;4.13;;
25637;SDS011;13496;51.040;13.680;2022-10-24T04:07:44;4.13;;;3.83;;
25637;SDS011;13496;51.040;13.680;2022-10-24T04:12:46;3.80;;;3.50;;
25637;SDS011;13496;51.040;13.680;2022-10-24T04:17:48;4.05;;;3.72;;
25637;SDS011;13496;51.040;13.680;2022-10-24T04:22:50;4.15;;;3.75;;
25637;SDS011;13496;51.040;13.680;2022-10-24T04:27:51;4.15;;;3.85;;
25637;SDS011;13496;51.040;13.680;2022-10-24T04:32:53;4.43;;;4.03;;
25637;SDS011;13496;51.040;13.680;2022-10-24T04:37:55;4.00;;;3.60;;
25637;SDS011;13496;51.040;13.680;2022-10-24T04:42:57;3.70;;;3.40;;
25637;SDS011;13496;51.040;13.680;2022-10-24T04:47:58;3.83;;;3.53;;
25637;SDS011;13496;51.040;13.680;2022-10-24T04:53:00;5.82;;;3.78;;
25637;SDS011;13496;51.040;13.680;2022-10-24T04:58:02;3.85;;;3.55;;
25637;SDS011;13496;51.040;13.680;2022-10-24T05:03:05;3.55;;;3.25;;
25637;SDS011;13496;51.040;13.680;2022-10-24T05:08:06;3.55;;;3.25;;
25637;SDS011;13496;51.040;13.680;2022-10-24T05:13:08;3.58;;;3.28;;
25637;SDS011;13496;51.040;13.680;2022-10-24T05:18:10;4.53;;;3.50;;
25637;SDS011;13496;51.040;13.680;2022-10-24T05:23:12;3.78;;;3.38;;
25637;SDS011;13496;51.040;13.680;2022-10-24T05:28:14;4.25;;;3.85;;
25637;SDS011;13496;51.040;13.680;2022-10-24T05:33:16;3.53;;;3.22;;
25637;SDS011;13496;51.040;13.680;2022-10-24T05:38:17;3.80;;;3.05;;
25637;SDS011;13496;51.040;13.680;2022-10-24T05:43:19;3.67;;;3.22;;
25637;SDS011;13496;51.040;13.680;2022-10-24T05:48:21;3.72;;;3.30;;
25637;SDS011;13496;51.040;13.680;2022-10-24T05:53:23;3.60;;;3.30;;
25637;SDS011;13496;51.040;13.680;2022-10-24T05:58:26;3.92;;;3.63;;
25637;SDS011;13496;51.040;13.680;2022-10-24T06:03:27;3.65;;;3.35;;
25637;SDS011;13496;51.040;13.680;2022-10-24T06:08:29;3.60;;;3.30;;
25637;SDS011;13496;51.040;13.680;2022-10-24T06:13:31;3.65;;;2.95;;
25637;SDS011;13496;51.040;13.680;2022-10-24T06:18:33;3.28;;;2.97;;
25637;SDS011;13496;51.040;13.680;2022-10-24T06:23:35;3.42;;;3.13;;
25637;SDS011;13496;51.040;13.680;2022-10-24T06:28:37;4.25;;;3.08;;
25637;SDS011;13496;51.040;13.680;2022-10-24T06:33:39;3.20;;;2.90;;
25637;SDS011;13496;51.040;13.680;2022-10-24T06:38:41;3.05;;;2.75;;
25637;SDS011;13496;51.040;13.680;2022-10-24T06:43:43;3.17;;;2.83;;
25637;SDS011;13496;51.040;13.680;2022-10-24T06:48:44;3.80;;;3.03;;
25637;SDS011;13496;51.040;13.680;2022-10-24T06:53:46;4.35;;;3.20;;
25637;SDS011;13496;51.040;13.680;2022-10-24T06:58:48;3.40;;;3.10;;
25637;SDS011;13496;51.040;13.680;2022-10-24T07:03:51;8.65;;;3.90;;
25637;SDS011;13496;51.040;13.680;2022-10-24T07:08:54;3.33;;;3.03;;
25637;SDS011;13496;51.040;13.680;2022-10-24T07:13:57;4.18;;;3.08;;
25637;SDS011;13496;51.040;13.680;2022-10-24T07:18:59;3.97;;;3.42;;
25637;SDS011;13496;51.040;13.680;2022-10-24T07:24:01;4.35;;;3.95;;
25637;SDS011;13496;51.040;13.680;2022-10-24T07:29:04;3.95;;;3.50;;
25637;SDS011;13496;51.040;13.680;2022-10-24T07:34:06;4.47;;;3.83;;
25637;SDS011;13496;51.040;13.680;2022-10-24T07:39:09;3.80;;;3.50;;
25637;SDS011;13496;51.040;13.680;2022-10-24T07:44:11;3.75;;;3.35;;
25637;SDS011;13496;51.040;13.680;2022-10-24T07:49:13;3.65;;;3.35;;
25637;SDS011;13496;51.040;13.680;2022-10-24T07:54:15;3.92;;;3.22;;
25637;SDS011;13496;51.040;13.680;2022-10-24T07:59:16;3.75;;;3.05;;
25637;SDS011;13496;51.040;13.680;2022-10-24T08:04:18;4.55;;;3.47;;
25637;SDS011;13496;51.040;13.680;2022-10-24T08:09:20;3.95;;;3.35;;
25637;SDS011;13496;51.040;13.680;2022-10-24T08:14:22;3.85;;;3.10;;
25637;SDS011;13496;51.040;13.680;2022-10-24T08:19:24;3.33;;;2.95;;
25637;SDS011;13496;51.040;13.680;2022-10-24T08:24:25;3.30;;;3.00;;
25637;SDS011;13496;51.040;13.680;2022-10-24T08:29:28;3.20;;;2.90;;
25637;SDS011;13496;51.040;13.680;2022-10-24T08:34:29;3.60;;;3.30;;
25637;SDS011;13496;51.040;13.680;2022-10-24T08:39:31;3.58;;;3.10;;
25637;SDS011;13496;51.040;13.680;2022-10-24T08:44:40;3.72;;;3.42;;
25637;SDS011;13496;51.040;13.680;2022-10-24T08:49:54;3.60;;;3.30;;
25637;SDS011;13496;51.040;13.680;2022-10-24T08:55:09;3.40;;;3.10;;
25637;SDS011;13496;51.040;13.680;2022-10-24T09:00:25;3.55;;;3.25;;
25637;SDS011;13496;51.040;13.680;2022-10-24T09:05:36;3.50;;;3.20;;
25637;SDS011;13496;51.040;13.680;2022-10-24T09:10:48;3.90;;;3.50;;
25637;SDS011;13496;51.040;13.680;2022-10-24T09:15:56;3.35;;;3.05;;
25637;SDS011;13496;51.040;13.680;2022-10-24T09:20:57;3.58;;;3.28;;
25637;SDS011;13496;51.040;13.680;2022-10-24T09:26:02;3.55;;;3.25;;
25637;SDS011;13496;51.040;13.680;2022-10-24T09:31:12;4.22;;;3.58;;
25637;SDS011;13496;51.040;13.680;2022-10-24T09:36:19;3.42;;;3.13;;
25637;SDS011;13496;51.040;13.680;2022-10-24T09:41:26;3.70;;;3.40;;
25637;SDS011;13496;51.040;13.680;2022-10-24T09:46:40;3.53;;;3.22;;
25637;SDS011;13496;51.040;13.680;2022-10-24T09:51:47;3.47;;;3.17;;
25637;SDS011;13496;51.040;13.680;2022-10-24T10:02:15;3.45;;;3.10;;
25637;SDS011;13496;51.040;13.680;2022-10-24T10:07:26;3.42;;;3.13;;
25637;SDS011;13496;51.040;13.680;2022-10-24T10:12:32;3.20;;;2.90;;
25637;SDS011;13496;51.040;13.680;2022-10-24T10:17:36;3.72;;;3.30;;
25637;SDS011;13496;51.040;13.680;2022-10-24T10:22:53;3.38;;;3.08;;
25637;SDS011;13496;51.040;13.680;2022-10-24T10:27:55;3.65;;;3.30;;
25637;SDS011;13496;51.040;13.680;2022-10-24T10:38:34;3.42;;;3.13;;
25637;SDS011;13496;51.040;13.680;2022-10-24T11:10:32;3.22;;;2.67;;
25637;SDS011;13496;51.040;13.680;2022-10-24T11:15:42;3.83;;;3.10;;
25637;SDS011;13496;51.040;13.680;2022-10-24T11:20:54;3.15;;;2.85;;
25637;SDS011;13496;51.040;13.680;2022-10-24T11:26:04;2.95;;;2.67;;
25637;SDS011;13496;51.040;13.680;2022-10-24T11:31:21;3.17;;;2.90;;
25637;SDS011;13496;51.040;13.680;2022-10-24T11:36:31;3.10;;;2.90;;
25637;SDS011;13496;51.040;13.680;2022-10-24T11:52:34;2.70;;;2.45;;
25637;SDS011;13496;51.040;13.680;2022-10-24T11:57:41;3.13;;;2.50;;
25637;SDS011;13496;51.040;13.680;2022-10-24T12:02:56;2.60;;;2.40;;
25637;SDS011;13496;51.040;13.680;2022-10-24T12:19:11;2.55;;;2.20;;
25637;SDS011;13496;51.040;13.680;2022-10-24T12:24:20;2.47;;;2.28;;
25637;SDS011;13496;51.040;13.680;2022-10-24T12:29:24;2.40;;;2.20;;
25637;SDS011;13496;51.040;13.680;2022-10-24T12:44:38;2.33;;;2.13;;
25637;SDS011;13496;51.040;13.680;2022-10-24T12:49:41;2.25;;;2.15;;
25637;SDS011;13496;51.040;13.680;2022-10-24T12:54:43;2.90;;;2.60;;
25637;SDS011;13496;51.040;13.680;2022-10-24T12:59:46;2.60;;;2.40;;
25637;SDS011;13496;51.040;13.680;2022-10-24T13:16:14;2.33;;;2.10;;
25637;SDS011;13496;51.040;13.680;2022-10-24T13:26:48;2.35;;;2.15;;
25637;SDS011;13496;51.040;13.680;2022-10-24T13:42:33;2.50;;;2.30;;
25637;SDS011;13496;51.040;13.680;2022-10-24T13:47:41;2.30;;;2.10;;
25637;SDS011;13496;51.040;13.680;2022-10-24T13:53:20;2.30;;;2.10;;
25637;SDS011;13496;51.040;13.680;2022-10-24T13:58:19;2.00;;;1.80;;
25637;SDS011;13496;51.040;13.680;2022-10-24T14:03:22;2.20;;;2.00;;
25637;SDS011;13496;51.040;13.680;2022-10-24T14:08:31;2.17;;;2.03;;
25637;SDS011;13496;51.040;13.680;2022-10-24T14:13:37;2.00;;;1.80;;
25637;SDS011;13496;51.040;13.680;2022-10-24T14:18:48;2.35;;;2.15;;
25637;SDS011;13496;51.040;13.680;2022-10-24T14:23:54;2.83;;;2.20;;
25637;SDS011;13496;51.040;13.680;2022-10-24T14:29:01;3.15;;;2.03;;
25637;SDS011;13496;51.040;13.680;2022-10-24T14:34:03;1.80;;;1.70;;
25637;SDS011;13496;51.040;13.680;2022-10-24T14:39:06;2.00;;;1.90;;
25637;SDS011;13496;51.040;13.680;2022-10-24T14:44:09;2.45;;;2.03;;
25637;SDS011;13496;51.040;13.680;2022-10-24T14:49:28;2.10;;;1.92;;
25637;SDS011;13496;51.040;13.680;2022-10-24T14:54:35;2.05;;;1.90;;
25637;SDS011;13496;51.040;13.680;2022-10-24T14:59:37;2.20;;;2.00;;
25637;SDS011;13496;51.040;13.680;2022-10-24T15:04:42;2.13;;;1.90;;
25637;SDS011;13496;51.040;13.680;2022-10-24T15:09:54;1.88;;;1.65;;
25637;SDS011;13496;51.040;13.680;2022-10-24T15:15:25;1.92;;;1.73;;
25637;SDS011;13496;51.040;13.680;2022-10-24T15:20:23;2.15;;;1.95;;
25637;SDS011;13496;51.040;13.680;2022-10-24T15:25:29;1.85;;;1.75;;
25637;SDS011;13496;51.040;13.680;2022-10-24T15:30:34;1.80;;;1.70;;
25637;SDS011;13496;51.040;13.680;2022-10-24T15:35:38;1.95;;;1.73;;
25637;SDS011;13496;51.040;13.680;2022-10-24T15:40:42;2.15;;;1.95;;
25637;SDS011;13496;51.040;13.680;2022-10-24T15:45:46;1.50;;;1.40;;
25637;SDS011;13496;51.040;13.680;2022-10-24T15:50:47;1.95;;;1.83;;
25637;SDS011;13496;51.040;13.680;2022-10-24T15:55:49;1.95;;;1.80;;
25637;SDS011;13496;51.040;13.680;2022-10-24T16:00:51;2.05;;;1.60;;
25637;SDS011;13496;51.040;13.680;2022-10-24T16:05:53;1.75;;;1.65;;
25637;SDS011;13496;51.040;13.680;2022-10-24T16:10:57;1.80;;;1.70;;
25637;SDS011;13496;51.040;13.680;2022-10-24T16:15:58;1.98;;;1.83;;
25637;SDS011;13496;51.040;13.680;2022-10-24T16:21:00;1.75;;;1.65;;
25637;SDS011;13496;51.040;13.680;2022-10-24T16:26:02;1.92;;;1.83;;
25637;SDS011;13496;51.040;13.680;2022-10-24T16:31:04;1.60;;;1.50;;
25637;SDS011;13496;51.040;13.680;2022-10-24T16:36:06;2.05;;;1.75;;
25637;SDS011;13496;51.040;13.680;2022-10-24T16:41:12;2.65;;;2.03;;
25637;SDS011;13496;51.040;13.680;2022-10-24T16:46:16;3.05;;;1.90;;
25637;SDS011;13496;51.040;13.680;2022-10-24T16:51:21;2.20;;;1.67;;
25637;SDS011;13496;51.040;13.680;2022-10-24T16:56:25;2.53;;;1.70;;
25637;SDS011;13496;51.040;13.680;2022-10-24T17:01:27;3.08;;;1.67;;
25637;SDS011;13496;51.040;13.680;2022-10-24T17:06:29;4.22;;;1.83;;
25637;SDS011;13496;51.040;13.680;2022-10-24T17:11:30;2.10;;;1.70;;
25637;SDS011;13496;51.040;13.680;2022-10-24T17:16:32;1.70;;;1.60;;
25637;SDS011;13496;51.040;13.680;2022-10-24T17:21:34;1.92;;;1.83;;
25637;SDS011;13496;51.040;13.680;2022-10-24T17:26:37;2.00;;;1.80;;
25637;SDS011;13496;51.040;13.680;2022-10-24T17:31:39;2.50;;;1.80;;
25637;SDS011;13496;51.040;13.680;2022-10-24T17:36:40;1.60;;;1.50;;
25637;SDS011;13496;51.040;13.680;2022-10-24T17:41:47;4.22;;;1.80;;
25637;SDS011;13496;51.040;13.680;2022-10-24T17:46:49;2.22;;;1.73;;
25637;SDS011;13496;51.040;13.680;2022-10-24T17:51:51;2.50;;;1.77;;
25637;SDS011;13496;51.040;13.680;2022-10-24T17:56:53;1.63;;;1.52;;
25637;SDS011;13496;51.040;13.680;2022-10-24T18:01:54;2.20;;;1.83;;
25637;SDS011;13496;51.040;13.680;2022-10-24T18:06:56;2.67;;;1.80;;
25637;SDS011;13496;51.040;13.680;2022-10-24T18:11:58;3.30;;;1.98;;
25637;SDS011;13496;51.040;13.680;2022-10-24T18:17:01;4.38;;;2.00;;
25637;SDS011;13496;51.040;13.680;2022-10-24T18:22:03;2.88;;;1.95;;
25637;SDS011;13496;51.040;13.680;2022-10-24T18:27:04;4.35;;;2.20;;
25637;SDS011;13496;51.040;13.680;2022-10-24T18:32:06;5.30;;;2.20;;
25637;SDS011;13496;51.040;13.680;2022-10-24T18:37:08;5.80;;;2.63;;
25637;SDS011;13496;51.040;13.680;2022-10-24T18:42:23;2.83;;;2.30;;
25637;SDS011;13496;51.040;13.680;2022-10-24T18:47:25;4.45;;;2.25;;
25637;SDS011;13496;51.040;13.680;2022-10-24T18:52:46;3.38;;;2.45;;
25637;SDS011;13496;51.040;13.680;2022-10-24T18:57:53;5.53;;;2.50;;
25637;SDS011;13496;51.040;13.680;2022-10-24T19:08:31;3.58;;;2.38;;
25637;SDS011;13496;51.040;13.680;2022-10-24T19:13:33;4.30;;;2.90;;
25637;SDS011;13496;51.040;13.680;2022-10-24T19:18:34;3.63;;;2.90;;
25637;SDS011;13496;51.040;13.680;2022-10-24T19:23:37;6.18;;;2.97;;
25637;SDS011;13496;51.040;13.680;2022-10-24T19:28:39;2.95;;;2.55;;
25637;SDS011;13496;51.040;13.680;2022-10-24T19:33:41;3.25;;;2.83;;
25637;SDS011;13496;51.040;13.680;2022-10-24T19:38:43;3.30;;;3.00;;
25637;SDS011;13496;51.040;13.680;2022-10-24T19:43:45;4.22;;;2.83;;
25637;SDS011;13496;51.040;13.680;2022-10-24T19:48:47;3.33;;;3.03;;
25637;SDS011;13496;51.040;13.680;2022-10-24T19:53:49;3.92;;;3.00;;
25637;SDS011;13496;51.040;13.680;2022-10-24T19:58:52;5.72;;;2.80;;
25637;SDS011;13496;51.040;13.680;2022-10-24T20:03:55;3.28;;;2.88;;
25637;SDS011;13496;51.040;13.680;2022-10-24T20:08:57;3.65;;;2.75;;
25637;SDS011;13496;51.040;13.680;2022-10-24T20:13:59;4.30;;;3.22;;
25637;SDS011;13496;51.040;13.680;2022-10-24T20:19:00;5.65;;;3.10;;
25637;SDS011;13496;51.040;13.680;2022-10-24T20:24:02;5.88;;;3.55;;
25637;SDS011;13496;51.040;13.680;2022-10-24T20:29:04;3.60;;;3.20;;
25637;SDS011;13496;51.040;13.680;2022-10-24T20:34:06;3.53;;;2.92;;
25637;SDS011;13496;51.040;13.680;2022-10-24T20:39:11;5.40;;;3.40;;
25637;SDS011;13496;51.040;13.680;2022-10-24T20:44:16;3.20;;;2.90;;
25637;SDS011;13496;51.040;13.680;2022-10-24T20:49:18;4.15;;;2.75;;
25637;SDS011;13496;51.040;13.680;2022-10-24T20:54:19;3.13;;;2.72;;
25637;SDS011;13496;51.040;13.680;2022-10-24T20:59:21;3.35;;;2.80;;
25637;SDS011;13496;51.040;13.680;2022-10-24T21:04:23;3.53;;;2.65;;
25637;SDS011;13496;51.040;13.680;2022-10-24T21:09:25;3.53;;;2.80;;
25637;SDS011;13496;51.040;13.680;2022-10-24T21:14:26;6.57;;;2.95;;
25637;SDS011;13496;51.040;13.680;2022-10-24T21:19:28;4.40;;;2.95;;
25637;SDS011;13496;51.040;13.680;2022-10-24T21:24:30;2.67;;;2.47;;
25637;SDS011;13496;51.040;13.680;2022-10-24T21:29:32;3.08;;;2.67;;
25637;SDS011;13496;51.040;13.680;2022-10-24T21:34:34;4.70;;;2.90;;
25637;SDS011;13496;51.040;13.680;2022-10-24T21:39:35;2.90;;;2.63;;
25637;SDS011;13496;51.040;13.680;2022-10-24T21:44:37;4.13;;;3.05;;
25637;SDS011;13496;51.040;13.680;2022-10-24T21:49:39;4.72;;;2.83;;
25637;SDS011;13496;51.040;13.680;2022-10-24T21:54:41;4.43;;;2.83;;
25637;SDS011;13496;51.040;13.680;2022-10-24T21:59:43;3.88;;;2.78;;
25637;SDS011;13496;51.040;13.680;2022-10-24T22:04:45;3.05;;;2.50;;
25637;SDS011;13496;51.040;13.680;2022-10-24T22:09:47;4.18;;;2.72;;
25637;SDS011;13496;51.040;13.680;2022-10-24T22:14:48;4.80;;;3.00;;
25637;SDS011;13496;51.040;13.680;2022-10-24T22:19:51;3.38;;;2.65;;
25637;SDS011;13496;51.040;13.680;2022-10-24T22:24:52;3.67;;;2.55;;
25637;SDS011;13496;51.040;13.680;2022-10-24T22:29:54;3.65;;;2.70;;
25637;SDS011;13496;51.040;13.680;2022-10-24T22:34:56;3.20;;;2.78;;
25637;SDS011;13496;51.040;13.680;2022-10-24T22:39:58;2.70;;;2.50;;
25637;SDS011;13496;51.040;13.680;2022-10-24T22:44:59;3.45;;;2.60;;
25637;SDS011;13496;51.040;13.680;2022-10-24T22:50:05;2.85;;;2.20;;
25637;SDS011;13496;51.040;13.680;2022-10-24T22:55:27;3.00;;;2.70;;
25637;SDS011;13496;51.040;13.680;2022-10-24T23:00:33;3.95;;;3.00;;
25637;SDS011;13496;51.040;13.680;2022-10-24T23:05:36;2.78;;;2.38;;
25637;SDS011;13496;51.040;13.680;2022-10-24T23:10:58;3.00;;;2.70;;
25637;SDS011;13496;51.040;13.680;2022-10-24T23:16:04;3.28;;;2.55;;
25637;SDS011;13496;51.040;13.680;2022-10-24T23:21:29;2.60;;;2.40;;
25637;SDS011;13496;51.040;13.680;2022-10-24T23:26:41;3.45;;;2.20;;
25637;SDS011;13496;51.040;13.680;2022-10-24T23:31:49;3.33;;;2.38;;
25637;SDS011;13496;51.040;13.680;2022-10-24T23:37:04;3.55;;;2.50;;
25637;SDS011;13496;51.040;13.680;2022-10-24T23:42:06;2.17;;;1.98;;
25637;SDS011;13496;51.040;13.680;2022-10-24T23:47:12;3.22;;;2.20;;
25637;SDS011;13496;51.040;13.680;2022-10-24T23:52:48;2.40;;;2.20;;
25637;SDS011;13496;51.040;13.680;2022-10-24T23:57:52;3.20;;;2.85;;
